createdAt,value
2022-09-13T00:00:14.781Z,99744.72
2022-09-13T00:02:41.405Z,99740.56
2022-09-13T00:05:08.086Z,99746.16
2022-09-13T00:07:34.568Z,99740.19
2022-09-13T00:10:01.142Z,99752.22
2022-09-13T00:12:27.695Z,99752.22
2022-09-13T00:14:54.154Z,99748.72
2022-09-13T00:17:21.675Z,99752.34
2022-09-13T00:19:48.098Z,99749.41
2022-09-13T00:22:14.522Z,99747.56
2022-09-13T00:24:41.503Z,99744.00
2022-09-13T00:27:08.147Z,99747.91
2022-09-13T00:29:34.624Z,99738.97
2022-09-13T00:32:01.084Z,99742.72
2022-09-13T00:34:27.568Z,99747.31
2022-09-13T00:36:53.988Z,99743.16
2022-09-13T00:39:20.619Z,99744.00
2022-09-13T00:41:47.102Z,99744.00
2022-09-13T00:44:50.800Z,99749.88
2022-09-13T00:47:43.334Z,99741.84
2022-09-13T00:50:34.438Z,99742.09
2022-09-13T00:53:13.820Z,99740.19
2022-09-13T00:55:53.581Z,99740.34
2022-09-13T00:58:26.341Z,99744.81
2022-09-13T01:00:53.759Z,99744.94
2022-09-13T01:03:21.219Z,99745.41
2022-09-13T01:05:52.224Z,99741.19
2022-09-13T01:08:24.975Z,99739.16
2022-09-13T01:10:52.357Z,99743.31
2022-09-13T01:13:21.716Z,99742.53
2022-09-13T01:15:48.349Z,99739.50
2022-09-13T01:18:15.121Z,99735.88
2022-09-13T01:21:21.636Z,99734.53
2022-09-13T01:24:11.496Z,99740.34
2022-09-13T01:26:59.854Z,99737.00
2022-09-13T01:29:57.482Z,99739.25
2022-09-13T01:32:27.848Z,99730.22
2022-09-13T01:35:17.000Z,99721.59
2022-09-13T01:38:07.778Z,99718.13
2022-09-13T01:41:01.813Z,99727.03
2022-09-13T01:44:08.773Z,99725.66
2022-09-13T01:46:52.682Z,99721.75
2022-09-13T01:49:47.105Z,99718.69
2022-09-13T01:52:38.163Z,99716.88
2022-09-13T01:55:27.400Z,99714.53
2022-09-13T01:58:02.734Z,99710.66
2022-09-13T02:00:34.351Z,99710.06
2022-09-13T02:03:23.682Z,99708.13
2022-09-13T02:06:06.534Z,99706.16
2022-09-13T02:08:37.991Z,99705.75
2022-09-13T02:11:09.804Z,99707.84
2022-09-13T02:13:41.557Z,99705.63
2022-09-13T02:16:13.194Z,99698.53
2022-09-13T02:18:41.492Z,99701.47
2022-09-13T02:21:13.333Z,99697.56
2022-09-13T02:23:44.716Z,99700.88
2022-09-13T02:26:13.219Z,99693.66
2022-09-13T02:28:44.100Z,99697.00
2022-09-13T02:31:12.686Z,99697.41
2022-09-13T02:33:48.703Z,99691.88
2022-09-13T02:36:20.001Z,99686.69
2022-09-13T02:38:57.172Z,99689.22
2022-09-13T02:41:36.757Z,99692.28
2022-09-13T02:44:14.743Z,99683.66
2022-09-13T02:47:22.646Z,99676.81
2022-09-13T02:50:16.213Z,99681.84
2022-09-13T02:53:15.808Z,99680.03
2022-09-13T02:55:48.549Z,99668.47
2022-09-13T02:58:36.744Z,99671.09
2022-09-13T03:01:03.729Z,99671.22
2022-09-13T03:03:30.571Z,99672.63
2022-09-13T03:05:56.998Z,99671.94
2022-09-13T03:08:23.852Z,99661.94
2022-09-13T03:11:00.328Z,99664.41
2022-09-13T03:13:35.003Z,99663.88
2022-09-13T03:16:20.151Z,99657.59
2022-09-13T03:19:21.236Z,99652.59
2022-09-13T03:22:19.101Z,99655.53
2022-09-13T03:25:10.434Z,99648.84
2022-09-13T03:28:01.194Z,99650.38
2022-09-13T03:30:27.915Z,99648.44
2022-09-13T03:33:16.219Z,99645.50
2022-09-13T03:35:53.711Z,99644.50
2022-09-13T03:38:27.286Z,99641.31
2022-09-13T03:41:21.772Z,99641.31
2022-09-13T03:43:50.913Z,99636.75
2022-09-13T03:46:20.439Z,99646.03
2022-09-13T03:48:47.479Z,99637.69
2022-09-13T03:51:14.362Z,99632.00
2022-09-13T03:53:48.157Z,99627.94
2022-09-13T03:56:15.629Z,99629.88
2022-09-13T03:58:42.752Z,99632.09
2022-09-13T04:01:10.336Z,99630.84
2022-09-13T04:03:38.165Z,99619.72
2022-09-13T04:06:05.009Z,99625.97
2022-09-13T04:08:32.849Z,99627.09
2022-09-13T04:10:59.621Z,99621.00
2022-09-13T04:13:26.886Z,99618.91
2022-09-13T04:15:53.439Z,99625.16
2022-09-13T04:18:20.184Z,99634.22
2022-09-13T04:20:54.811Z,99629.63
2022-09-13T04:23:22.739Z,99629.06
2022-09-13T04:25:49.336Z,99623.78
2022-09-13T04:28:16.839Z,99626.59
2022-09-13T04:30:49.951Z,99623.94
2022-09-13T04:33:19.445Z,99635.91
2022-09-13T04:35:45.925Z,99635.50
2022-09-13T04:38:12.369Z,99635.78
2022-09-13T04:40:39.553Z,99635.38
2022-09-13T04:43:06.093Z,99635.78
2022-09-13T04:45:32.838Z,99635.47
2022-09-13T04:48:00.005Z,99637.72
2022-09-13T04:50:26.562Z,99638.00
2022-09-13T04:52:55.637Z,99638.81
2022-09-13T04:55:22.313Z,99634.59
2022-09-13T04:57:53.253Z,99636.41
2022-09-13T05:00:20.092Z,99637.22
2022-09-13T05:02:46.658Z,99629.25
2022-09-13T05:05:13.267Z,99640.13
2022-09-13T05:07:39.724Z,99630.63
2022-09-13T05:10:06.709Z,99625.41
2022-09-13T05:12:33.171Z,99630.97
2022-09-13T05:14:59.603Z,99624.94
2022-09-13T05:17:26.083Z,99618.75
2022-09-13T05:19:52.506Z,99622.59
2022-09-13T05:22:19.117Z,99626.63
2022-09-13T05:24:45.611Z,99624.03
2022-09-13T05:27:12.139Z,99635.34
2022-09-13T05:29:38.605Z,99632.81
2022-09-13T05:32:05.201Z,99638.16
2022-09-13T05:34:32.363Z,99628.13
2022-09-13T05:36:58.767Z,99629.28
2022-09-13T05:39:43.953Z,99620.78
2022-09-13T05:42:11.824Z,99633.03
2022-09-13T05:44:38.318Z,99621.13
2022-09-13T05:47:05.631Z,99631.50
2022-09-13T05:49:32.383Z,99625.28
2022-09-13T05:51:58.963Z,99618.56
2022-09-13T05:54:25.462Z,99614.81
2022-09-13T05:56:54.205Z,99610.53
2022-09-13T05:59:20.777Z,99615.94
2022-09-13T06:01:48.415Z,99611.19
2022-09-13T06:04:14.912Z,99608.78
2022-09-13T06:06:41.532Z,99608.81
2022-09-13T06:09:09.249Z,99606.06
2022-09-13T06:11:35.675Z,99604.97
2022-09-13T06:14:02.201Z,99609.28
2022-09-13T06:16:28.713Z,99614.47
2022-09-13T06:18:55.270Z,99614.97
2022-09-13T06:21:25.923Z,99609.97
2022-09-13T06:23:55.356Z,99613.81
2022-09-13T06:26:23.877Z,99620.59
2022-09-13T06:28:52.579Z,99622.56
2022-09-13T06:31:20.995Z,99623.41
2022-09-13T06:33:47.703Z,99617.56
2022-09-13T06:36:19.098Z,99615.88
2022-09-13T06:38:46.764Z,99618.47
2022-09-13T06:41:18.773Z,99612.09
2022-09-13T06:43:46.234Z,99617.81
2022-09-13T06:46:20.462Z,99614.56
2022-09-13T06:48:50.575Z,99619.69
2022-09-13T06:51:19.208Z,99615.41
2022-09-13T06:53:47.420Z,99617.06
2022-09-13T06:56:21.831Z,99615.84
2022-09-13T06:58:51.081Z,99618.47
2022-09-13T07:01:18.873Z,99616.47
2022-09-13T07:03:50.549Z,99612.97
2022-09-13T07:06:22.449Z,99618.44
2022-09-13T07:08:51.173Z,99637.34
2022-09-13T07:11:19.948Z,99643.97
2022-09-13T07:13:53.840Z,99647.44
2022-09-13T07:16:22.614Z,99656.34
2022-09-13T07:18:53.611Z,99658.72
2022-09-13T07:21:20.706Z,99661.75
2022-09-13T07:23:47.286Z,99668.34
2022-09-13T07:26:13.866Z,99659.03
2022-09-13T07:28:42.626Z,99657.97
2022-09-13T07:31:12.390Z,99655.88
2022-09-13T07:33:40.102Z,99653.34
2022-09-13T07:36:07.393Z,99661.44
2022-09-13T07:38:38.700Z,99660.47
2022-09-13T07:41:06.760Z,99662.41
2022-09-13T07:43:36.346Z,99661.22
2022-09-13T07:46:08.850Z,99652.06
2022-09-13T07:48:38.093Z,99654.34
2022-09-13T07:51:05.573Z,99672.84
2022-09-13T07:53:33.509Z,99666.88
2022-09-13T07:56:04.337Z,99675.22
2022-09-13T07:58:32.403Z,99668.31
2022-09-13T08:01:13.101Z,99662.44
2022-09-13T08:03:39.703Z,99646.47
2022-09-13T08:06:07.480Z,99654.31
2022-09-13T08:08:34.933Z,99647.41
2022-09-13T08:11:02.512Z,99652.50
2022-09-13T08:13:29.398Z,99660.84
2022-09-13T08:15:56.482Z,99646.59
2022-09-13T08:18:23.068Z,99616.09
2022-09-13T08:20:49.638Z,99608.59
2022-09-13T08:23:16.066Z,99599.41
2022-09-13T08:25:42.541Z,99590.50
2022-09-13T08:28:13.544Z,99582.78
2022-09-13T08:30:41.139Z,99574.13
2022-09-13T08:33:08.104Z,99569.78
2022-09-13T08:35:34.741Z,99557.78
2022-09-13T08:38:01.269Z,99550.41
2022-09-13T08:40:31.248Z,99552.97
2022-09-13T08:43:35.663Z,99550.28
2022-09-13T08:46:26.648Z,99548.50
2022-09-13T08:48:56.197Z,99555.50
2022-09-13T08:51:47.355Z,99558.09
2022-09-13T08:54:16.407Z,99556.44
2022-09-13T08:56:59.639Z,99552.38
2022-09-13T09:00:26.688Z,99538.31
2022-09-13T09:03:02.305Z,99543.16
2022-09-13T09:05:32.637Z,99541.03
2022-09-13T09:08:07.136Z,99536.78
2022-09-13T09:10:41.334Z,99537.53
2022-09-13T09:13:29.625Z,99534.38
2022-09-13T09:16:03.178Z,99528.03
2022-09-13T09:18:33.753Z,99531.84
2022-09-13T09:21:01.853Z,99520.31
2022-09-13T09:23:52.143Z,99525.19
2022-09-13T09:26:21.639Z,99520.25
2022-09-13T09:28:55.086Z,99511.53
2022-09-13T09:31:31.414Z,99508.91
2022-09-13T09:34:18.752Z,99514.25
2022-09-13T09:36:56.735Z,99501.94
2022-09-13T09:39:26.330Z,99506.38
2022-09-13T09:41:55.331Z,99507.94
2022-09-13T09:44:24.345Z,99505.41
2022-09-13T09:46:56.933Z,99498.94
2022-09-13T09:49:55.837Z,99495.22
2022-09-13T09:52:28.682Z,99488.16
2022-09-13T09:54:59.684Z,99480.06
2022-09-13T09:57:54.227Z,99482.22
2022-09-13T10:00:23.358Z,99473.38
2022-09-13T10:02:52.697Z,99477.53
2022-09-13T10:05:20.918Z,99480.63
2022-09-13T10:07:55.936Z,99473.03
2022-09-13T10:10:27.983Z,99468.94
2022-09-13T10:12:56.286Z,99463.38
2022-09-13T10:15:35.783Z,99459.34
2022-09-13T10:18:43.322Z,99462.03
2022-09-13T10:21:19.078Z,99463.06
2022-09-13T10:23:47.587Z,99460.91
2022-09-13T10:26:23.975Z,99451.31
2022-09-13T10:29:03.840Z,99460.81
2022-09-13T10:31:34.436Z,99450.19
2022-09-13T10:34:03.730Z,99443.00
2022-09-13T10:36:51.531Z,99441.56
2022-09-13T10:39:21.763Z,99443.44
2022-09-13T10:41:55.327Z,99443.72
2022-09-13T10:45:06.516Z,99432.03
2022-09-13T10:47:38.303Z,99426.44
2022-09-13T10:50:22.436Z,99425.16
2022-09-13T10:52:50.829Z,99426.50
2022-09-13T10:55:19.828Z,99429.47
2022-09-13T10:57:47.967Z,99429.28
2022-09-13T11:00:20.262Z,99427.72
2022-09-13T11:03:14.763Z,99434.69
2022-09-13T11:05:47.809Z,99423.09
2022-09-13T11:08:43.699Z,99420.88
2022-09-13T11:11:25.396Z,99419.69
2022-09-13T11:13:55.813Z,99414.75
2022-09-13T11:16:37.696Z,99415.47
2022-09-13T11:19:22.067Z,99409.16
2022-09-13T11:21:56.689Z,99412.59
2022-09-13T11:24:49.206Z,99400.34
2022-09-13T11:27:40.133Z,99400.28
2022-09-13T11:30:14.876Z,99397.38
2022-09-13T11:33:09.005Z,99395.97
2022-09-13T11:35:44.348Z,99390.19
2022-09-13T11:38:49.907Z,99388.56
2022-09-13T11:41:16.558Z,99385.63
2022-09-13T11:43:57.514Z,99384.13
2022-09-13T11:46:43.838Z,99379.16
2022-09-13T11:49:38.022Z,99372.88
2022-09-13T11:52:09.830Z,99363.41
2022-09-13T11:55:00.249Z,99365.81
2022-09-13T11:57:33.658Z,99354.06
2022-09-13T12:00:10.741Z,99346.41
2022-09-13T12:02:42.227Z,99347.59
2022-09-13T12:05:22.477Z,99342.84
2022-09-13T12:08:05.288Z,99333.13
2022-09-13T12:10:40.614Z,99329.97
2022-09-13T12:13:13.018Z,99326.28
2022-09-13T12:15:42.097Z,99317.94
2022-09-13T12:18:35.605Z,99311.81
2022-09-13T12:21:24.108Z,99313.31
2022-09-13T12:24:06.341Z,99307.09
2022-09-13T12:26:45.216Z,99297.84
2022-09-13T12:29:16.897Z,99293.09
2022-09-13T12:31:43.856Z,99284.16
2022-09-13T12:34:18.057Z,99278.84
2022-09-13T12:37:08.759Z,99279.78
2022-09-13T12:39:44.074Z,99289.28
2022-09-13T12:42:53.541Z,99291.44
2022-09-13T12:45:38.777Z,99291.16
2022-09-13T12:48:28.636Z,99282.59
2022-09-13T12:51:15.121Z,99271.63
2022-09-13T12:54:05.712Z,99271.16
2022-09-13T12:56:40.155Z,99269.13
2022-09-13T12:59:40.808Z,99267.47
2022-09-13T13:02:27.453Z,99257.97
2022-09-13T13:04:57.806Z,99251.69
2022-09-13T13:07:24.549Z,99258.34
2022-09-13T13:09:53.285Z,99257.59
2022-09-13T13:12:31.041Z,99253.66
2022-09-13T13:14:58.475Z,99247.72
2022-09-13T13:17:45.023Z,99243.06
2022-09-13T13:20:45.958Z,99237.00
2022-09-13T13:23:18.123Z,99227.38
2022-09-13T13:26:10.083Z,99231.13
2022-09-13T13:28:45.350Z,99232.28
2022-09-13T13:31:35.739Z,99223.06
2022-09-13T13:34:08.502Z,99223.66
2022-09-13T13:36:41.234Z,99226.78
2022-09-13T13:39:13.913Z,99223.81
2022-09-13T13:41:56.231Z,99227.94
2022-09-13T13:44:22.703Z,99219.91
2022-09-13T13:46:53.925Z,99223.34
2022-09-13T13:49:32.677Z,99223.13
2022-09-13T13:52:11.012Z,99216.09
2022-09-13T13:54:47.603Z,99222.28
2022-09-13T13:57:33.741Z,99223.13
2022-09-13T14:00:13.549Z,99225.84
2022-09-13T14:02:54.694Z,99222.63
2022-09-13T14:05:42.089Z,99216.91
2022-09-13T14:08:27.513Z,99220.28
2022-09-13T14:11:29.872Z,99210.91
2022-09-13T14:14:25.344Z,99199.25
2022-09-13T14:17:10.386Z,99194.47
2022-09-13T14:19:44.706Z,99187.13
2022-09-13T14:22:21.065Z,99186.31
2022-09-13T14:24:55.678Z,99181.50
2022-09-13T14:27:23.951Z,99179.41
2022-09-13T14:30:32.806Z,99178.13
2022-09-13T14:32:59.607Z,99170.34
2022-09-13T14:35:26.043Z,99168.44
2022-09-13T14:37:52.604Z,99163.63
2022-09-13T14:40:23.792Z,99169.28
2022-09-13T14:42:51.894Z,99166.63
2022-09-13T14:45:31.997Z,99156.75
2022-09-13T14:48:12.913Z,99157.53
2022-09-13T14:50:42.287Z,99152.50
2022-09-13T14:53:14.934Z,99149.66
2022-09-13T14:55:44.075Z,99141.16
2022-09-13T14:58:17.221Z,99140.84
2022-09-13T15:00:50.826Z,99141.38
2022-09-13T15:03:18.697Z,99138.81
2022-09-13T15:06:00.700Z,99137.47
2022-09-13T15:08:33.215Z,99132.09
2022-09-13T15:11:01.887Z,99137.41
2022-09-13T15:13:28.730Z,99131.28
2022-09-13T15:15:55.522Z,99131.22
2022-09-13T15:18:25.243Z,99128.09
2022-09-13T15:21:00.102Z,99121.19
2022-09-13T15:23:35.662Z,99122.72
2022-09-13T15:26:08.946Z,99120.47
2022-09-13T15:28:41.261Z,99122.41
2022-09-13T15:31:08.155Z,99119.72
2022-09-13T15:33:35.535Z,99117.47
2022-09-13T15:36:20.051Z,99119.00
2022-09-13T15:39:08.933Z,99118.41
2022-09-13T15:41:37.319Z,99111.84
2022-09-13T15:44:06.381Z,99118.19
2022-09-13T15:46:35.598Z,99113.59
2022-09-13T15:49:04.237Z,99106.75
2022-09-13T15:51:38.660Z,99105.69
2022-09-13T15:54:11.997Z,99104.81
2022-09-13T15:56:42.169Z,99116.16
2022-09-13T15:59:13.051Z,99107.88
2022-09-13T16:01:39.612Z,99098.63
2022-09-13T16:04:06.614Z,99101.75
2022-09-13T16:06:33.476Z,99094.19
2022-09-13T16:09:00.560Z,99088.97
2022-09-13T16:11:27.714Z,99093.09
2022-09-13T16:13:54.333Z,99091.88
2022-09-13T16:16:20.907Z,99081.84
2022-09-13T16:18:47.430Z,99078.41
2022-09-13T16:21:14.000Z,99079.78
2022-09-13T16:23:40.489Z,99069.31
2022-09-13T16:26:07.013Z,99062.88
2022-09-13T16:28:33.826Z,99075.13
2022-09-13T16:31:00.287Z,99059.91
2022-09-13T16:33:26.813Z,99061.06
2022-09-13T16:35:53.244Z,99058.25
2022-09-13T16:38:19.751Z,99057.03
2022-09-13T16:40:46.578Z,99051.22
2022-09-13T16:43:13.640Z,99057.94
2022-09-13T16:45:41.629Z,99054.91
2022-09-13T16:48:08.353Z,99052.53
2022-09-13T16:50:36.074Z,99052.06
2022-09-13T16:53:02.700Z,99052.69
2022-09-13T16:55:29.685Z,99052.31
2022-09-13T16:57:56.765Z,99058.13
2022-09-13T17:00:24.709Z,99063.19
2022-09-13T17:02:51.747Z,99059.06
2022-09-13T17:05:18.320Z,99049.94
2022-09-13T17:07:44.802Z,99037.72
2022-09-13T17:10:12.476Z,99040.63
2022-09-13T17:12:39.655Z,99048.75
2022-09-13T17:15:06.969Z,99046.75
2022-09-13T17:17:36.185Z,99045.16
2022-09-13T17:20:09.975Z,99050.75
2022-09-13T17:22:36.950Z,99046.75
2022-09-13T17:25:04.740Z,99041.81
2022-09-13T17:27:34.698Z,99046.50
2022-09-13T17:30:02.308Z,99044.06
2022-09-13T17:32:28.762Z,99038.44
2022-09-13T17:34:55.423Z,99039.13
2022-09-13T17:37:21.975Z,99042.94
2022-09-13T17:39:48.784Z,99044.44
2022-09-13T17:42:15.344Z,99034.56
2022-09-13T17:44:41.822Z,99034.56
2022-09-13T17:47:08.480Z,99040.50
2022-09-13T17:49:35.032Z,99040.63
2022-09-13T17:52:03.776Z,99038.63
2022-09-13T17:54:31.880Z,99036.03
2022-09-13T17:56:58.429Z,99045.31
2022-09-13T17:59:24.972Z,99040.53
2022-09-13T18:01:53.297Z,99044.84
2022-09-13T18:04:22.034Z,99041.22
2022-09-13T18:06:50.817Z,99040.97
2022-09-13T18:09:17.362Z,99047.06
2022-09-13T18:11:44.330Z,99043.84
2022-09-13T18:14:13.486Z,99046.31
2022-09-13T18:16:40.186Z,99045.63
2022-09-13T18:19:07.297Z,99032.41
2022-09-13T18:21:34.081Z,99039.66
2022-09-13T18:24:01.785Z,99028.66
2022-09-13T18:26:29.543Z,99030.50
2022-09-13T18:28:59.099Z,99029.25
2022-09-13T18:31:25.684Z,99016.09
2022-09-13T18:33:57.672Z,99015.66
2022-09-13T18:36:25.208Z,99016.88
2022-09-13T18:38:53.160Z,99022.28
2022-09-13T18:41:22.303Z,99010.94
2022-09-13T18:43:54.933Z,99005.00
2022-09-13T18:46:25.369Z,99006.34
2022-09-13T18:48:54.067Z,99000.03
2022-09-13T18:51:22.557Z,98990.72
2022-09-13T18:53:49.874Z,98995.06
2022-09-13T18:56:19.741Z,98992.38
2022-09-13T18:58:47.079Z,98991.38
2022-09-13T19:01:41.041Z,98990.91
2022-09-13T19:04:11.324Z,98977.78
2022-09-13T19:06:40.314Z,98982.72
2022-09-13T19:09:07.068Z,98978.84
2022-09-13T19:11:52.588Z,98978.59
2022-09-13T19:14:23.303Z,98978.19
2022-09-13T19:16:50.774Z,98970.59
2022-09-13T19:19:17.301Z,98974.03
2022-09-13T19:21:44.201Z,98968.88
2022-09-13T19:24:17.760Z,98979.41
2022-09-13T19:26:46.902Z,98983.34
2022-09-13T19:29:15.811Z,98972.81
2022-09-13T19:31:44.246Z,98971.69
2022-09-13T19:34:12.358Z,98975.41
2022-09-13T19:36:40.232Z,98965.13
2022-09-13T19:39:07.564Z,98957.31
2022-09-13T19:41:35.283Z,98956.56
2022-09-13T19:44:02.394Z,98944.91
2022-09-13T19:46:37.985Z,98945.69
2022-09-13T19:49:05.249Z,98948.19
2022-09-13T19:51:36.102Z,98948.22
2022-09-13T19:54:03.808Z,98943.28
2022-09-13T19:56:38.822Z,98939.34
2022-09-13T19:59:07.370Z,98935.63
2022-09-13T20:01:39.548Z,98935.28
2022-09-13T20:04:11.454Z,98944.03
2022-09-13T20:06:40.132Z,98941.50
2022-09-13T20:09:08.715Z,98937.00
2022-09-13T20:11:41.296Z,98930.03
2022-09-13T20:14:09.237Z,98927.97
2022-09-13T20:16:37.718Z,98939.06
2022-09-13T20:19:18.377Z,98935.63
2022-09-13T20:21:50.453Z,98925.06
2022-09-13T20:24:17.838Z,98924.69
2022-09-13T20:26:44.373Z,98915.53
2022-09-13T20:29:12.167Z,98917.78
2022-09-13T20:31:38.858Z,98917.28
2022-09-13T20:34:07.331Z,98915.44
2022-09-13T20:36:36.103Z,98909.81
2022-09-13T20:39:03.896Z,98898.63
2022-09-13T20:41:32.034Z,98908.78
2022-09-13T20:43:59.848Z,98904.88
2022-09-13T20:46:26.716Z,98902.41
2022-09-13T20:48:53.203Z,98898.00
2022-09-13T20:51:21.794Z,98909.84
2022-09-13T20:53:48.249Z,98895.78
2022-09-13T20:56:16.371Z,98896.16
2022-09-13T20:58:44.361Z,98895.03
2022-09-13T21:01:20.596Z,98901.25
2022-09-13T21:03:49.237Z,98888.91
2022-09-13T21:06:16.392Z,98888.72
2022-09-13T21:08:43.248Z,98894.69
2022-09-13T21:11:15.023Z,98894.06
2022-09-13T21:13:44.972Z,98897.16
2022-09-13T21:16:17.140Z,98894.06
2022-09-13T21:18:44.345Z,98889.72
2022-09-13T21:21:17.093Z,98895.94
2022-09-13T21:23:44.255Z,98885.28
2022-09-13T21:26:14.146Z,98887.63
2022-09-13T21:28:43.148Z,98884.91
2022-09-13T21:31:25.150Z,98877.94
2022-09-13T21:33:56.010Z,98884.59
2022-09-13T21:36:22.621Z,98878.88
2022-09-13T21:38:49.181Z,98878.09
2022-09-13T21:41:17.598Z,98885.34
2022-09-13T21:43:44.526Z,98876.09
2022-09-13T21:46:16.667Z,98889.69
2022-09-13T21:48:45.736Z,98888.25
2022-09-13T21:51:23.973Z,98880.28
2022-09-13T21:53:57.673Z,98878.00
2022-09-13T21:56:27.132Z,98870.19
2022-09-13T21:58:55.486Z,98868.97
2022-09-13T22:01:23.625Z,98874.53
2022-09-13T22:03:52.073Z,98874.13
2022-09-13T22:06:22.119Z,98866.09
2022-09-13T22:08:53.334Z,98864.47
2022-09-13T22:11:25.022Z,98860.75
2022-09-13T22:13:51.563Z,98852.09
2022-09-13T22:16:21.143Z,98856.19
2022-09-13T22:18:49.733Z,98853.94
2022-09-13T22:21:18.544Z,98856.19
2022-09-13T22:23:45.046Z,98856.81
2022-09-13T22:26:16.781Z,98850.84
2022-09-13T22:28:43.804Z,98852.09
2022-09-13T22:31:13.230Z,98845.72
2022-09-13T22:33:39.934Z,98839.13
2022-09-13T22:36:08.443Z,98840.78
2022-09-13T22:38:35.978Z,98833.16
2022-09-13T22:41:07.500Z,98842.63
2022-09-13T22:43:34.401Z,98845.72
2022-09-13T22:46:03.134Z,98835.84
2022-09-13T22:48:30.512Z,98833.78
2022-09-13T22:50:57.615Z,98836.28
2022-09-13T22:53:25.205Z,98842.06
2022-09-13T22:55:51.645Z,98839.97
2022-09-13T22:58:18.245Z,98837.50
2022-09-13T23:00:45.989Z,98842.88
2022-09-13T23:03:13.900Z,98838.94
2022-09-13T23:05:40.450Z,98839.56
2022-09-13T23:08:06.929Z,98833.78
2022-09-13T23:10:33.447Z,98823.31
2022-09-13T23:13:00.483Z,98829.50
2022-09-13T23:15:27.019Z,98828.44
2022-09-13T23:17:53.785Z,98831.75
2022-09-13T23:20:20.309Z,98833.81
2022-09-13T23:22:46.882Z,98833.41
2022-09-13T23:25:13.598Z,98825.38
2022-09-13T23:27:40.145Z,98832.16
2022-09-13T23:30:06.939Z,98834.03
2022-09-13T23:32:33.427Z,98836.28
2022-09-13T23:34:59.930Z,98842.06
2022-09-13T23:37:26.483Z,98845.13
2022-09-13T23:39:53.145Z,98839.56
2022-09-13T23:42:19.681Z,98845.16
2022-09-13T23:44:46.078Z,98840.41
2022-09-13T23:47:12.492Z,98834.25
2022-09-13T23:49:38.894Z,98824.78
2022-09-13T23:52:05.308Z,98830.13
2022-09-13T23:54:32.325Z,98826.84
2022-09-13T23:56:58.731Z,98828.06
2022-09-13T23:59:25.160Z,98821.88
